sensor_id;sensor_type;location;lat;lon;timestamp;P1;durP1;ratioP1;P2;durP2;ratioP2
37303;SDS011;23188;51.188;16.374;2023-08-07T00:01:32;5.90;;;2.70;;
37303;SDS011;23188;51.188;16.374;2023-08-07T00:05:36;3.60;;;2.60;;
37303;SDS011;23188;51.188;16.374;2023-08-07T00:09:39;2.60;;;1.80;;
37303;SDS011;23188;51.188;16.374;2023-08-07T00:13:45;5.60;;;3.20;;
37303;SDS011;23188;51.188;16.374;2023-08-07T00:17:48;4.10;;;2.10;;
37303;SDS011;23188;51.188;16.374;2023-08-07T00:26:49;4.40;;;2.70;;
37303;SDS011;23188;51.188;16.374;2023-08-07T00:31:01;2.60;;;2.30;;
37303;SDS011;23188;51.188;16.374;2023-08-07T00:35:04;1.90;;;1.70;;
37303;SDS011;23188;51.188;16.374;2023-08-07T00:39:13;9.80;;;4.00;;
37303;SDS011;23188;51.188;16.374;2023-08-07T00:43:16;3.70;;;2.50;;
37303;SDS011;23188;51.188;16.374;2023-08-07T00:47:19;5.10;;;4.00;;
37303;SDS011;23188;51.188;16.374;2023-08-07T00:51:23;11.70;;;4.60;;
37303;SDS011;23188;51.188;16.374;2023-08-07T00:55:26;8.60;;;2.90;;
37303;SDS011;23188;51.188;16.374;2023-08-07T00:59:31;8.30;;;3.80;;
37303;SDS011;23188;51.188;16.374;2023-08-07T01:03:35;3.90;;;2.60;;
37303;SDS011;23188;51.188;16.374;2023-08-07T01:07:38;4.50;;;3.00;;
37303;SDS011;23188;51.188;16.374;2023-08-07T01:16:37;5.80;;;3.70;;
37303;SDS011;23188;51.188;16.374;2023-08-07T01:20:57;4.60;;;3.30;;
37303;SDS011;23188;51.188;16.374;2023-08-07T01:25:00;5.80;;;2.80;;
37303;SDS011;23188;51.188;16.374;2023-08-07T01:29:12;5.80;;;3.00;;
37303;SDS011;23188;51.188;16.374;2023-08-07T01:33:40;3.50;;;3.20;;
37303;SDS011;23188;51.188;16.374;2023-08-07T01:41:58;3.30;;;2.90;;
37303;SDS011;23188;51.188;16.374;2023-08-07T01:46:03;3.60;;;2.70;;
37303;SDS011;23188;51.188;16.374;2023-08-07T01:50:11;5.40;;;2.50;;
37303;SDS011;23188;51.188;16.374;2023-08-07T01:59:10;4.50;;;2.50;;
37303;SDS011;23188;51.188;16.374;2023-08-07T02:03:13;3.60;;;2.20;;
37303;SDS011;23188;51.188;16.374;2023-08-07T02:07:18;3.90;;;2.40;;
37303;SDS011;23188;51.188;16.374;2023-08-07T02:11:22;2.90;;;1.80;;
37303;SDS011;23188;51.188;16.374;2023-08-07T02:15:25;2.70;;;2.10;;
37303;SDS011;23188;51.188;16.374;2023-08-07T02:19:28;3.50;;;1.70;;
37303;SDS011;23188;51.188;16.374;2023-08-07T02:23:34;2.70;;;2.00;;
37303;SDS011;23188;51.188;16.374;2023-08-07T02:27:39;4.10;;;2.60;;
37303;SDS011;23188;51.188;16.374;2023-08-07T02:31:44;5.20;;;2.30;;
37303;SDS011;23188;51.188;16.374;2023-08-07T02:35:49;11.30;;;3.90;;
37303;SDS011;23188;51.188;16.374;2023-08-07T02:39:55;5.00;;;2.00;;
37303;SDS011;23188;51.188;16.374;2023-08-07T02:48:06;1.90;;;1.50;;
37303;SDS011;23188;51.188;16.374;2023-08-07T02:52:11;2.60;;;1.80;;
37303;SDS011;23188;51.188;16.374;2023-08-07T02:56:15;7.50;;;4.10;;
37303;SDS011;23188;51.188;16.374;2023-08-07T03:00:18;6.10;;;3.20;;
37303;SDS011;23188;51.188;16.374;2023-08-07T03:04:24;3.20;;;2.10;;
37303;SDS011;23188;51.188;16.374;2023-08-07T03:08:28;10.60;;;2.70;;
37303;SDS011;23188;51.188;16.374;2023-08-07T03:12:31;2.30;;;1.80;;
37303;SDS011;23188;51.188;16.374;2023-08-07T03:16:40;6.60;;;2.40;;
37303;SDS011;23188;51.188;16.374;2023-08-07T03:20:43;3.10;;;1.70;;
37303;SDS011;23188;51.188;16.374;2023-08-07T03:24:47;7.00;;;2.20;;
37303;SDS011;23188;51.188;16.374;2023-08-07T03:28:52;2.70;;;1.80;;
37303;SDS011;23188;51.188;16.374;2023-08-07T03:32:55;3.80;;;2.50;;
37303;SDS011;23188;51.188;16.374;2023-08-07T03:37:02;2.20;;;2.00;;
37303;SDS011;23188;51.188;16.374;2023-08-07T03:41:08;2.20;;;1.60;;
37303;SDS011;23188;51.188;16.374;2023-08-07T03:45:12;2.40;;;1.70;;
37303;SDS011;23188;51.188;16.374;2023-08-07T03:49:15;2.00;;;1.70;;
37303;SDS011;23188;51.188;16.374;2023-08-07T03:53:18;2.90;;;2.20;;
37303;SDS011;23188;51.188;16.374;2023-08-07T03:57:23;2.20;;;1.60;;
37303;SDS011;23188;51.188;16.374;2023-08-07T04:01:27;2.80;;;2.10;;
37303;SDS011;23188;51.188;16.374;2023-08-07T04:05:32;3.00;;;1.70;;
37303;SDS011;23188;51.188;16.374;2023-08-07T04:14:32;3.90;;;1.70;;
37303;SDS011;23188;51.188;16.374;2023-08-07T04:22:50;3.70;;;1.80;;
37303;SDS011;23188;51.188;16.374;2023-08-07T04:26:56;2.00;;;1.70;;
37303;SDS011;23188;51.188;16.374;2023-08-07T04:35:31;1.80;;;1.40;;
37303;SDS011;23188;51.188;16.374;2023-08-07T04:39:34;3.70;;;2.00;;
37303;SDS011;23188;51.188;16.374;2023-08-07T04:43:40;2.20;;;1.30;;
37303;SDS011;23188;51.188;16.374;2023-08-07T04:47:47;1.60;;;1.40;;
37303;SDS011;23188;51.188;16.374;2023-08-07T04:51:52;2.10;;;1.20;;
37303;SDS011;23188;51.188;16.374;2023-08-07T04:55:56;1.20;;;1.10;;
37303;SDS011;23188;51.188;16.374;2023-08-07T04:59:59;1.90;;;1.70;;
37303;SDS011;23188;51.188;16.374;2023-08-07T05:04:08;1.10;;;0.70;;
37303;SDS011;23188;51.188;16.374;2023-08-07T05:08:13;1.00;;;0.90;;
37303;SDS011;23188;51.188;16.374;2023-08-07T05:12:17;11.30;;;1.60;;
37303;SDS011;23188;51.188;16.374;2023-08-07T05:20:57;1.60;;;1.40;;
37303;SDS011;23188;51.188;16.374;2023-08-07T05:25:00;2.10;;;1.90;;
37303;SDS011;23188;51.188;16.374;2023-08-07T05:29:03;3.50;;;2.60;;
37303;SDS011;23188;51.188;16.374;2023-08-07T05:33:07;2.10;;;1.50;;
37303;SDS011;23188;51.188;16.374;2023-08-07T05:37:10;3.10;;;2.30;;
37303;SDS011;23188;51.188;16.374;2023-08-07T05:41:14;5.20;;;3.20;;
37303;SDS011;23188;51.188;16.374;2023-08-07T05:45:25;10.40;;;6.70;;
37303;SDS011;23188;51.188;16.374;2023-08-07T05:49:29;12.10;;;6.50;;
37303;SDS011;23188;51.188;16.374;2023-08-07T05:53:33;4.20;;;3.20;;
37303;SDS011;23188;51.188;16.374;2023-08-07T05:57:42;3.60;;;1.90;;
37303;SDS011;23188;51.188;16.374;2023-08-07T06:01:45;4.20;;;2.00;;
37303;SDS011;23188;51.188;16.374;2023-08-07T06:05:50;2.10;;;1.70;;
37303;SDS011;23188;51.188;16.374;2023-08-07T06:09:58;2.80;;;2.30;;
37303;SDS011;23188;51.188;16.374;2023-08-07T06:14:02;4.70;;;2.40;;
37303;SDS011;23188;51.188;16.374;2023-08-07T06:18:05;2.10;;;1.80;;
37303;SDS011;23188;51.188;16.374;2023-08-07T06:22:11;2.20;;;1.90;;
37303;SDS011;23188;51.188;16.374;2023-08-07T06:26:14;2.00;;;1.80;;
37303;SDS011;23188;51.188;16.374;2023-08-07T06:30:18;4.60;;;2.90;;
37303;SDS011;23188;51.188;16.374;2023-08-07T06:34:21;3.20;;;2.80;;
37303;SDS011;23188;51.188;16.374;2023-08-07T06:38:24;2.80;;;2.00;;
37303;SDS011;23188;51.188;16.374;2023-08-07T06:42:29;3.00;;;2.00;;
37303;SDS011;23188;51.188;16.374;2023-08-07T06:46:32;8.70;;;2.50;;
37303;SDS011;23188;51.188;16.374;2023-08-07T06:54:44;5.40;;;2.60;;
37303;SDS011;23188;51.188;16.374;2023-08-07T06:58:47;3.50;;;2.80;;
37303;SDS011;23188;51.188;16.374;2023-08-07T07:02:53;2.90;;;2.30;;
37303;SDS011;23188;51.188;16.374;2023-08-07T07:06:57;3.20;;;2.60;;
37303;SDS011;23188;51.188;16.374;2023-08-07T07:11:01;3.90;;;2.50;;
37303;SDS011;23188;51.188;16.374;2023-08-07T07:15:07;2.40;;;2.20;;
37303;SDS011;23188;51.188;16.374;2023-08-07T07:19:12;3.30;;;2.60;;
37303;SDS011;23188;51.188;16.374;2023-08-07T07:23:15;4.10;;;2.40;;
37303;SDS011;23188;51.188;16.374;2023-08-07T07:27:19;2.50;;;1.80;;
37303;SDS011;23188;51.188;16.374;2023-08-07T07:31:27;3.00;;;2.50;;
37303;SDS011;23188;51.188;16.374;2023-08-07T07:35:39;3.40;;;2.80;;
37303;SDS011;23188;51.188;16.374;2023-08-07T07:39:43;4.40;;;2.90;;
37303;SDS011;23188;51.188;16.374;2023-08-07T07:43:47;7.30;;;3.50;;
37303;SDS011;23188;51.188;16.374;2023-08-07T07:52:11;7.70;;;3.80;;
37303;SDS011;23188;51.188;16.374;2023-08-07T07:56:17;4.20;;;2.30;;
37303;SDS011;23188;51.188;16.374;2023-08-07T08:00:23;5.40;;;2.70;;
37303;SDS011;23188;51.188;16.374;2023-08-07T08:04:31;5.80;;;2.40;;
37303;SDS011;23188;51.188;16.374;2023-08-07T08:08:36;11.00;;;3.90;;
37303;SDS011;23188;51.188;16.374;2023-08-07T08:12:40;3.10;;;2.80;;
37303;SDS011;23188;51.188;16.374;2023-08-07T08:16:45;6.60;;;3.50;;
37303;SDS011;23188;51.188;16.374;2023-08-07T08:20:49;4.00;;;2.90;;
37303;SDS011;23188;51.188;16.374;2023-08-07T08:29:48;4.10;;;3.10;;
37303;SDS011;23188;51.188;16.374;2023-08-07T08:33:52;7.90;;;3.10;;
37303;SDS011;23188;51.188;16.374;2023-08-07T08:37:55;6.00;;;3.50;;
37303;SDS011;23188;51.188;16.374;2023-08-07T08:41:59;3.40;;;2.10;;
37303;SDS011;23188;51.188;16.374;2023-08-07T08:46:03;3.60;;;2.60;;
37303;SDS011;23188;51.188;16.374;2023-08-07T08:50:08;4.90;;;2.40;;
37303;SDS011;23188;51.188;16.374;2023-08-07T08:58:40;5.00;;;3.00;;
37303;SDS011;23188;51.188;16.374;2023-08-07T09:03:06;2.80;;;2.00;;
37303;SDS011;23188;51.188;16.374;2023-08-07T09:07:41;5.20;;;2.60;;
37303;SDS011;23188;51.188;16.374;2023-08-07T09:12:20;3.40;;;1.70;;
37303;SDS011;23188;51.188;16.374;2023-08-07T09:16:47;2.80;;;2.20;;
37303;SDS011;23188;51.188;16.374;2023-08-07T09:20:51;6.00;;;2.50;;
37303;SDS011;23188;51.188;16.374;2023-08-07T09:24:54;4.10;;;2.20;;
37303;SDS011;23188;51.188;16.374;2023-08-07T09:28:59;4.40;;;2.30;;
37303;SDS011;23188;51.188;16.374;2023-08-07T09:33:02;8.90;;;2.50;;
37303;SDS011;23188;51.188;16.374;2023-08-07T09:37:07;2.90;;;1.90;;
37303;SDS011;23188;51.188;16.374;2023-08-07T09:41:11;4.00;;;2.10;;
37303;SDS011;23188;51.188;16.374;2023-08-07T09:49:41;2.70;;;2.10;;
37303;SDS011;23188;51.188;16.374;2023-08-07T09:53:47;3.30;;;1.90;;
37303;SDS011;23188;51.188;16.374;2023-08-07T09:57:51;2.90;;;2.60;;
37303;SDS011;23188;51.188;16.374;2023-08-07T10:01:54;2.60;;;2.00;;
37303;SDS011;23188;51.188;16.374;2023-08-07T10:05:58;2.70;;;1.70;;
37303;SDS011;23188;51.188;16.374;2023-08-07T10:10:03;3.90;;;1.80;;
37303;SDS011;23188;51.188;16.374;2023-08-07T10:14:11;2.30;;;1.60;;
37303;SDS011;23188;51.188;16.374;2023-08-07T10:18:16;2.40;;;1.80;;
37303;SDS011;23188;51.188;16.374;2023-08-07T10:22:19;7.70;;;2.00;;
37303;SDS011;23188;51.188;16.374;2023-08-07T10:26:22;3.20;;;2.00;;
37303;SDS011;23188;51.188;16.374;2023-08-07T10:30:27;6.60;;;2.00;;
37303;SDS011;23188;51.188;16.374;2023-08-07T10:39:05;4.30;;;2.40;;
37303;SDS011;23188;51.188;16.374;2023-08-07T10:43:13;3.10;;;2.10;;
37303;SDS011;23188;51.188;16.374;2023-08-07T10:47:32;2.60;;;2.40;;
37303;SDS011;23188;51.188;16.374;2023-08-07T10:52:02;4.20;;;1.90;;
37303;SDS011;23188;51.188;16.374;2023-08-07T11:01:21;1.80;;;1.40;;
37303;SDS011;23188;51.188;16.374;2023-08-07T11:05:25;3.50;;;1.70;;
37303;SDS011;23188;51.188;16.374;2023-08-07T11:09:31;3.60;;;2.70;;
37303;SDS011;23188;51.188;16.374;2023-08-07T11:13:36;6.80;;;2.30;;
37303;SDS011;23188;51.188;16.374;2023-08-07T11:17:39;1.40;;;1.20;;
37303;SDS011;23188;51.188;16.374;2023-08-07T11:21:44;1.90;;;1.70;;
37303;SDS011;23188;51.188;16.374;2023-08-07T11:25:49;4.10;;;1.80;;
37303;SDS011;23188;51.188;16.374;2023-08-07T11:29:52;4.60;;;2.60;;
37303;SDS011;23188;51.188;16.374;2023-08-07T11:33:56;3.20;;;1.90;;
37303;SDS011;23188;51.188;16.374;2023-08-07T11:38:01;2.00;;;1.80;;
37303;SDS011;23188;51.188;16.374;2023-08-07T11:42:05;1.80;;;1.70;;
37303;SDS011;23188;51.188;16.374;2023-08-07T11:46:09;2.90;;;2.30;;
37303;SDS011;23188;51.188;16.374;2023-08-07T11:50:14;6.00;;;2.50;;
37303;SDS011;23188;51.188;16.374;2023-08-07T11:54:20;5.50;;;2.70;;
37303;SDS011;23188;51.188;16.374;2023-08-07T11:58:24;3.40;;;3.00;;
37303;SDS011;23188;51.188;16.374;2023-08-07T12:02:28;4.30;;;3.40;;
37303;SDS011;23188;51.188;16.374;2023-08-07T12:06:32;2.30;;;2.00;;
37303;SDS011;23188;51.188;16.374;2023-08-07T12:10:36;4.20;;;2.40;;
37303;SDS011;23188;51.188;16.374;2023-08-07T12:14:41;4.80;;;2.80;;
37303;SDS011;23188;51.188;16.374;2023-08-07T12:18:44;2.70;;;2.30;;
37303;SDS011;23188;51.188;16.374;2023-08-07T12:22:49;3.20;;;2.80;;
37303;SDS011;23188;51.188;16.374;2023-08-07T12:26:52;3.50;;;2.20;;
37303;SDS011;23188;51.188;16.374;2023-08-07T12:30:56;3.40;;;2.10;;
37303;SDS011;23188;51.188;16.374;2023-08-07T12:34:59;3.00;;;1.60;;
37303;SDS011;23188;51.188;16.374;2023-08-07T12:39:06;2.80;;;2.20;;
37303;SDS011;23188;51.188;16.374;2023-08-07T12:43:10;3.30;;;1.50;;
37303;SDS011;23188;51.188;16.374;2023-08-07T12:47:14;2.90;;;2.10;;
37303;SDS011;23188;51.188;16.374;2023-08-07T12:51:17;2.60;;;2.00;;
37303;SDS011;23188;51.188;16.374;2023-08-07T12:55:23;2.90;;;2.00;;
37303;SDS011;23188;51.188;16.374;2023-08-07T12:59:26;3.10;;;2.20;;
37303;SDS011;23188;51.188;16.374;2023-08-07T13:03:29;3.40;;;2.20;;
37303;SDS011;23188;51.188;16.374;2023-08-07T13:07:32;2.40;;;1.40;;
37303;SDS011;23188;51.188;16.374;2023-08-07T13:11:35;1.80;;;1.30;;
37303;SDS011;23188;51.188;16.374;2023-08-07T13:15:38;1.00;;;0.80;;
37303;SDS011;23188;51.188;16.374;2023-08-07T13:19:41;2.50;;;1.30;;
37303;SDS011;23188;51.188;16.374;2023-08-07T13:23:45;4.10;;;1.20;;
37303;SDS011;23188;51.188;16.374;2023-08-07T13:27:54;2.60;;;1.20;;
37303;SDS011;23188;51.188;16.374;2023-08-07T13:31:57;1.60;;;0.60;;
37303;SDS011;23188;51.188;16.374;2023-08-07T13:41:20;1.00;;;0.70;;
37303;SDS011;23188;51.188;16.374;2023-08-07T13:45:24;5.80;;;2.60;;
37303;SDS011;23188;51.188;16.374;2023-08-07T13:49:27;3.60;;;1.90;;
37303;SDS011;23188;51.188;16.374;2023-08-07T13:53:30;2.50;;;1.30;;
37303;SDS011;23188;51.188;16.374;2023-08-07T13:57:33;1.50;;;0.70;;
37303;SDS011;23188;51.188;16.374;2023-08-07T14:01:37;1.50;;;0.70;;
37303;SDS011;23188;51.188;16.374;2023-08-07T14:05:41;0.70;;;0.60;;
37303;SDS011;23188;51.188;16.374;2023-08-07T14:09:44;2.20;;;0.80;;
37303;SDS011;23188;51.188;16.374;2023-08-07T14:13:47;1.50;;;0.60;;
37303;SDS011;23188;51.188;16.374;2023-08-07T14:17:51;1.30;;;0.60;;
37303;SDS011;23188;51.188;16.374;2023-08-07T14:21:54;3.80;;;1.20;;
37303;SDS011;23188;51.188;16.374;2023-08-07T14:25:58;0.50;;;0.30;;
37303;SDS011;23188;51.188;16.374;2023-08-07T14:34:33;0.80;;;0.50;;
37303;SDS011;23188;51.188;16.374;2023-08-07T14:38:37;1.40;;;0.60;;
37303;SDS011;23188;51.188;16.374;2023-08-07T14:53:05;3.10;;;0.70;;
37303;SDS011;23188;51.188;16.374;2023-08-07T14:57:09;1.40;;;0.80;;
37303;SDS011;23188;51.188;16.374;2023-08-07T15:01:12;0.80;;;0.50;;
37303;SDS011;23188;51.188;16.374;2023-08-07T15:05:16;1.10;;;0.40;;
37303;SDS011;23188;51.188;16.374;2023-08-07T15:09:20;0.20;;;0.20;;
37303;SDS011;23188;51.188;16.374;2023-08-07T15:13:23;1.20;;;0.50;;
37303;SDS011;23188;51.188;16.374;2023-08-07T15:17:27;1.20;;;0.50;;
37303;SDS011;23188;51.188;16.374;2023-08-07T15:21:31;1.70;;;0.50;;
37303;SDS011;23188;51.188;16.374;2023-08-07T15:25:36;0.90;;;0.60;;
37303;SDS011;23188;51.188;16.374;2023-08-07T15:29:40;2.40;;;0.30;;
37303;SDS011;23188;51.188;16.374;2023-08-07T15:33:47;1.30;;;1.10;;
37303;SDS011;23188;51.188;16.374;2023-08-07T15:37:53;2.40;;;0.60;;
37303;SDS011;23188;51.188;16.374;2023-08-07T15:41:57;1.20;;;0.70;;
37303;SDS011;23188;51.188;16.374;2023-08-07T15:46:01;0.50;;;0.30;;
37303;SDS011;23188;51.188;16.374;2023-08-07T15:50:04;0.20;;;0.20;;
37303;SDS011;23188;51.188;16.374;2023-08-07T15:54:08;5.50;;;0.60;;
37303;SDS011;23188;51.188;16.374;2023-08-07T15:58:13;1.60;;;0.30;;
37303;SDS011;23188;51.188;16.374;2023-08-07T16:02:16;0.70;;;0.50;;
37303;SDS011;23188;51.188;16.374;2023-08-07T16:06:21;0.70;;;0.40;;
37303;SDS011;23188;51.188;16.374;2023-08-07T16:10:24;1.00;;;0.50;;
37303;SDS011;23188;51.188;16.374;2023-08-07T16:14:29;1.90;;;1.10;;
37303;SDS011;23188;51.188;16.374;2023-08-07T16:18:37;1.00;;;0.40;;
37303;SDS011;23188;51.188;16.374;2023-08-07T16:22:41;0.90;;;0.50;;
37303;SDS011;23188;51.188;16.374;2023-08-07T16:26:46;1.70;;;0.60;;
37303;SDS011;23188;51.188;16.374;2023-08-07T16:30:50;0.80;;;0.40;;
37303;SDS011;23188;51.188;16.374;2023-08-07T16:34:53;2.50;;;0.70;;
37303;SDS011;23188;51.188;16.374;2023-08-07T16:38:57;0.50;;;0.40;;
37303;SDS011;23188;51.188;16.374;2023-08-07T16:43:04;0.20;;;0.10;;
37303;SDS011;23188;51.188;16.374;2023-08-07T16:47:08;2.40;;;0.50;;
37303;SDS011;23188;51.188;16.374;2023-08-07T16:51:12;1.30;;;0.50;;
37303;SDS011;23188;51.188;16.374;2023-08-07T16:55:18;0.90;;;0.40;;
37303;SDS011;23188;51.188;16.374;2023-08-07T16:59:22;1.00;;;0.60;;
37303;SDS011;23188;51.188;16.374;2023-08-07T17:03:26;0.50;;;0.20;;
37303;SDS011;23188;51.188;16.374;2023-08-07T17:07:29;3.10;;;0.50;;
37303;SDS011;23188;51.188;16.374;2023-08-07T17:11:33;0.50;;;0.30;;
37303;SDS011;23188;51.188;16.374;2023-08-07T17:15:37;0.30;;;0.30;;
37303;SDS011;23188;51.188;16.374;2023-08-07T17:19:41;0.50;;;0.20;;
37303;SDS011;23188;51.188;16.374;2023-08-07T17:23:44;2.30;;;0.70;;
37303;SDS011;23188;51.188;16.374;2023-08-07T17:27:47;0.50;;;0.40;;
37303;SDS011;23188;51.188;16.374;2023-08-07T17:31:51;2.60;;;0.60;;
37303;SDS011;23188;51.188;16.374;2023-08-07T17:35:56;1.90;;;0.40;;
37303;SDS011;23188;51.188;16.374;2023-08-07T17:40:00;0.70;;;0.40;;
37303;SDS011;23188;51.188;16.374;2023-08-07T17:44:03;1.00;;;0.60;;
37303;SDS011;23188;51.188;16.374;2023-08-07T17:48:07;3.20;;;0.80;;
37303;SDS011;23188;51.188;16.374;2023-08-07T17:52:10;0.60;;;0.20;;
37303;SDS011;23188;51.188;16.374;2023-08-07T17:56:15;0.70;;;0.60;;
37303;SDS011;23188;51.188;16.374;2023-08-07T18:00:18;0.80;;;0.30;;
37303;SDS011;23188;51.188;16.374;2023-08-07T18:04:22;1.50;;;0.70;;
37303;SDS011;23188;51.188;16.374;2023-08-07T18:08:25;0.60;;;0.30;;
37303;SDS011;23188;51.188;16.374;2023-08-07T18:12:29;7.30;;;1.10;;
37303;SDS011;23188;51.188;16.374;2023-08-07T18:16:32;1.70;;;0.70;;
37303;SDS011;23188;51.188;16.374;2023-08-07T18:20:36;3.60;;;0.80;;
37303;SDS011;23188;51.188;16.374;2023-08-07T18:24:39;1.40;;;0.20;;
37303;SDS011;23188;51.188;16.374;2023-08-07T18:28:43;1.10;;;0.40;;
37303;SDS011;23188;51.188;16.374;2023-08-07T18:32:47;1.10;;;1.00;;
37303;SDS011;23188;51.188;16.374;2023-08-07T18:36:53;1.60;;;0.60;;
37303;SDS011;23188;51.188;16.374;2023-08-07T18:40:59;1.10;;;0.50;;
37303;SDS011;23188;51.188;16.374;2023-08-07T18:45:03;2.50;;;0.40;;
37303;SDS011;23188;51.188;16.374;2023-08-07T18:49:07;1.40;;;0.30;;
37303;SDS011;23188;51.188;16.374;2023-08-07T18:53:13;5.20;;;1.20;;
37303;SDS011;23188;51.188;16.374;2023-08-07T18:57:22;0.90;;;0.40;;
37303;SDS011;23188;51.188;16.374;2023-08-07T19:01:27;0.70;;;0.40;;
37303;SDS011;23188;51.188;16.374;2023-08-07T19:05:30;0.40;;;0.40;;
37303;SDS011;23188;51.188;16.374;2023-08-07T19:09:35;0.40;;;0.20;;
37303;SDS011;23188;51.188;16.374;2023-08-07T19:13:40;0.70;;;0.30;;
37303;SDS011;23188;51.188;16.374;2023-08-07T19:17:44;1.30;;;0.60;;
37303;SDS011;23188;51.188;16.374;2023-08-07T19:21:50;0.60;;;0.60;;
37303;SDS011;23188;51.188;16.374;2023-08-07T19:25:54;0.50;;;0.40;;
37303;SDS011;23188;51.188;16.374;2023-08-07T19:29:57;0.90;;;0.70;;
37303;SDS011;23188;51.188;16.374;2023-08-07T19:34:01;1.70;;;0.50;;
37303;SDS011;23188;51.188;16.374;2023-08-07T19:38:05;4.30;;;1.00;;
37303;SDS011;23188;51.188;16.374;2023-08-07T19:42:08;2.80;;;0.90;;
37303;SDS011;23188;51.188;16.374;2023-08-07T19:46:11;1.80;;;0.40;;
37303;SDS011;23188;51.188;16.374;2023-08-07T19:50:15;3.40;;;0.80;;
37303;SDS011;23188;51.188;16.374;2023-08-07T19:54:18;2.70;;;1.50;;
37303;SDS011;23188;51.188;16.374;2023-08-07T19:58:22;1.70;;;0.90;;
37303;SDS011;23188;51.188;16.374;2023-08-07T20:02:25;6.60;;;1.70;;
37303;SDS011;23188;51.188;16.374;2023-08-07T20:06:29;3.80;;;1.00;;
37303;SDS011;23188;51.188;16.374;2023-08-07T20:10:32;2.30;;;0.80;;
37303;SDS011;23188;51.188;16.374;2023-08-07T20:14:35;4.50;;;1.20;;
37303;SDS011;23188;51.188;16.374;2023-08-07T20:18:39;3.90;;;1.10;;
37303;SDS011;23188;51.188;16.374;2023-08-07T20:22:42;2.50;;;1.00;;
37303;SDS011;23188;51.188;16.374;2023-08-07T20:26:46;2.10;;;0.90;;
37303;SDS011;23188;51.188;16.374;2023-08-07T20:30:52;2.50;;;1.70;;
37303;SDS011;23188;51.188;16.374;2023-08-07T20:34:58;5.10;;;0.90;;
37303;SDS011;23188;51.188;16.374;2023-08-07T20:39:08;2.30;;;0.90;;
37303;SDS011;23188;51.188;16.374;2023-08-07T20:43:20;3.50;;;1.40;;
37303;SDS011;23188;51.188;16.374;2023-08-07T20:47:25;3.60;;;1.30;;
37303;SDS011;23188;51.188;16.374;2023-08-07T20:51:29;3.50;;;1.40;;
37303;SDS011;23188;51.188;16.374;2023-08-07T20:55:35;3.20;;;1.10;;
37303;SDS011;23188;51.188;16.374;2023-08-07T20:59:39;3.80;;;1.60;;
37303;SDS011;23188;51.188;16.374;2023-08-07T21:03:43;2.70;;;2.00;;
37303;SDS011;23188;51.188;16.374;2023-08-07T21:07:47;3.70;;;1.10;;
37303;SDS011;23188;51.188;16.374;2023-08-07T21:11:51;1.50;;;1.30;;
37303;SDS011;23188;51.188;16.374;2023-08-07T21:15:55;3.40;;;1.50;;
37303;SDS011;23188;51.188;16.374;2023-08-07T21:20:02;3.70;;;1.60;;
37303;SDS011;23188;51.188;16.374;2023-08-07T21:24:06;2.80;;;2.00;;
37303;SDS011;23188;51.188;16.374;2023-08-07T21:28:15;2.90;;;1.70;;
37303;SDS011;23188;51.188;16.374;2023-08-07T21:32:18;9.40;;;2.50;;
37303;SDS011;23188;51.188;16.374;2023-08-07T21:36:21;13.00;;;2.80;;
37303;SDS011;23188;51.188;16.374;2023-08-07T21:40:25;8.20;;;2.20;;
37303;SDS011;23188;51.188;16.374;2023-08-07T21:44:28;4.50;;;2.00;;
37303;SDS011;23188;51.188;16.374;2023-08-07T21:48:32;2.50;;;1.40;;
37303;SDS011;23188;51.188;16.374;2023-08-07T21:52:35;9.40;;;2.50;;
37303;SDS011;23188;51.188;16.374;2023-08-07T21:56:39;7.10;;;1.80;;
37303;SDS011;23188;51.188;16.374;2023-08-07T22:04:51;4.20;;;2.00;;
37303;SDS011;23188;51.188;16.374;2023-08-07T22:08:55;3.60;;;1.30;;
37303;SDS011;23188;51.188;16.374;2023-08-07T22:13:00;3.80;;;1.90;;
37303;SDS011;23188;51.188;16.374;2023-08-07T22:17:04;3.50;;;1.90;;
37303;SDS011;23188;51.188;16.374;2023-08-07T22:21:09;4.70;;;1.80;;
37303;SDS011;23188;51.188;16.374;2023-08-07T22:25:14;2.30;;;1.90;;
37303;SDS011;23188;51.188;16.374;2023-08-07T22:29:18;5.90;;;1.50;;
37303;SDS011;23188;51.188;16.374;2023-08-07T22:33:22;1.70;;;0.90;;
37303;SDS011;23188;51.188;16.374;2023-08-07T22:47:37;3.70;;;1.60;;
37303;SDS011;23188;51.188;16.374;2023-08-07T22:51:43;6.00;;;1.50;;
37303;SDS011;23188;51.188;16.374;2023-08-07T23:06:13;3.50;;;1.80;;
37303;SDS011;23188;51.188;16.374;2023-08-07T23:10:16;4.70;;;1.80;;
37303;SDS011;23188;51.188;16.374;2023-08-07T23:14:21;6.30;;;1.70;;
37303;SDS011;23188;51.188;16.374;2023-08-07T23:18:24;2.50;;;1.80;;
37303;SDS011;23188;51.188;16.374;2023-08-07T23:22:28;6.30;;;2.00;;
37303;SDS011;23188;51.188;16.374;2023-08-07T23:26:33;7.60;;;1.90;;
37303;SDS011;23188;51.188;16.374;2023-08-07T23:30:36;4.30;;;1.60;;
37303;SDS011;23188;51.188;16.374;2023-08-07T23:34:40;3.20;;;1.50;;
37303;SDS011;23188;51.188;16.374;2023-08-07T23:38:43;7.20;;;2.40;;
37303;SDS011;23188;51.188;16.374;2023-08-07T23:42:47;5.90;;;1.70;;
37303;SDS011;23188;51.188;16.374;2023-08-07T23:46:50;3.80;;;2.10;;
37303;SDS011;23188;51.188;16.374;2023-08-07T23:50:54;7.20;;;2.30;;
37303;SDS011;23188;51.188;16.374;2023-08-07T23:54:58;3.70;;;2.50;;
37303;SDS011;23188;51.188;16.374;2023-08-07T23:59:01;4.40;;;2.30;;
